Time;durP1;ratioP1;P1;durP2;ratioP2;P2;SDS_P1;SDS_P2;PMS_P1;PMS_P2;Temp;Humidity;BMP_temperature;BMP_pressure;BME280_temperature;BME280_humidity;BME280_pressure;Samples;Min_cycle;Max_cycle;Signal;HPM_P1;HPM_P2
2021/09/13 00:02:16;;;;;;;11.07;2.35;;;;;;;;;;4978057;28;20038;-51
2021/09/13 00:04:43;;;;;;;10.02;2.60;;;;;;;;;;4988225;28;20043;-54
2021/09/13 00:07:09;;;;;;;8.02;2.50;;;;;;;;;;5000179;28;20050;-54
2021/09/13 00:09:36;;;;;;;5.97;2.50;;;;;;;;;;5004368;28;20043;-54
2021/09/13 00:12:02;;;;;;;4.18;2.33;;;;;;;;;;5000916;28;20057;-54
2021/09/13 00:14:29;;;;;;;5.45;2.50;;;;;;;;;;5002542;28;20276;-55
2021/09/13 00:16:57;;;;;;;6.40;2.50;;;;;;;;;;4985933;28;20090;-53
2021/09/13 00:19:23;;;;;;;4.53;2.30;;;;;;;;;;4986147;28;20053;-54
2021/09/13 00:21:50;;;;;;;5.90;2.38;;;;;;;;;;4983266;28;20051;-54
2021/09/13 00:24:16;;;;;;;6.13;2.50;;;;;;;;;;4984370;28;20057;-54
2021/09/13 00:26:43;;;;;;;6.72;2.25;;;;;;;;;;4982281;28;20050;-53
2021/09/13 00:29:09;;;;;;;6.20;2.70;;;;;;;;;;4980641;28;20061;-52
2021/09/13 00:31:37;;;;;;;4.45;2.35;;;;;;;;;;4984312;28;20038;-54
2021/09/13 00:34:05;;;;;;;6.90;2.53;;;;;;;;;;4983391;28;20046;-51
2021/09/13 00:36:31;;;;;;;7.50;2.67;;;;;;;;;;4983824;28;20162;-53
2021/09/13 00:38:58;;;;;;;9.98;2.53;;;;;;;;;;4979934;28;20416;-53
2021/09/13 00:41:24;;;;;;;6.55;2.53;;;;;;;;;;4984506;28;20054;-51
2021/09/13 00:43:51;;;;;;;6.72;2.47;;;;;;;;;;4980256;28;20048;-49
2021/09/13 00:46:19;;;;;;;4.53;2.25;;;;;;;;;;5000194;28;20031;-53
2021/09/13 00:48:45;;;;;;;6.20;2.58;;;;;;;;;;4997532;28;20046;-53
2021/09/13 00:51:13;;;;;;;5.18;2.60;;;;;;;;;;4984761;28;20047;-53
2021/09/13 00:53:40;;;;;;;4.88;2.10;;;;;;;;;;4981980;28;20027;-50
2021/09/13 00:56:07;;;;;;;7.00;2.75;;;;;;;;;;4985330;28;20058;-52
2021/09/13 00:58:35;;;;;;;8.07;3.00;;;;;;;;;;4996157;28;20043;-51
2021/09/13 01:01:02;;;;;;;7.43;2.63;;;;;;;;;;4984714;28;20182;-53
2021/09/13 01:03:28;;;;;;;4.63;2.20;;;;;;;;;;4982500;28;20046;-48
2021/09/13 01:05:55;;;;;;;5.43;2.55;;;;;;;;;;4984408;28;20035;-52
2021/09/13 01:08:23;;;;;;;6.70;3.08;;;;;;;;;;4983589;28;20116;-51
2021/09/13 01:10:51;;;;;;;5.05;2.45;;;;;;;;;;4980551;28;20050;-54
2021/09/13 01:13:17;;;;;;;6.00;2.47;;;;;;;;;;4984034;28;20050;-57
2021/09/13 01:15:44;;;;;;;6.40;2.70;;;;;;;;;;4980618;28;20058;-52
2021/09/13 01:18:10;;;;;;;8.98;3.20;;;;;;;;;;4983624;28;20042;-53
2021/09/13 01:20:37;;;;;;;6.13;2.40;;;;;;;;;;4982805;28;20052;-53
2021/09/13 01:23:07;;;;;;;6.30;2.60;;;;;;;;;;4982879;28;20054;-55
2021/09/13 01:25:37;;;;;;;8.68;2.90;;;;;;;;;;4979300;28;20043;-55
2021/09/13 01:28:04;;;;;;;4.30;2.47;;;;;;;;;;4983185;28;20049;-55
2021/09/13 01:30:31;;;;;;;6.95;2.72;;;;;;;;;;4982879;28;20126;-53
2021/09/13 01:32:58;;;;;;;4.40;2.38;;;;;;;;;;4984577;28;20038;-54
2021/09/13 01:35:24;;;;;;;5.30;2.75;;;;;;;;;;4979911;28;20054;-53
2021/09/13 01:37:51;;;;;;;7.05;2.53;;;;;;;;;;4983037;28;20050;-53
2021/09/13 01:40:17;;;;;;;6.00;2.40;;;;;;;;;;4980281;28;20046;-53
2021/09/13 01:42:45;;;;;;;5.35;2.58;;;;;;;;;;4981866;28;20110;-52
2021/09/13 01:45:12;;;;;;;5.70;2.30;;;;;;;;;;4979774;28;20057;-51
2021/09/13 01:47:38;;;;;;;5.78;2.58;;;;;;;;;;4984168;28;20042;-54
2021/09/13 01:50:05;;;;;;;5.10;2.78;;;;;;;;;;4981281;28;20051;-50
2021/09/13 01:52:32;;;;;;;5.75;2.70;;;;;;;;;;4982879;28;20055;-49
2021/09/13 01:54:58;;;;;;;5.88;2.63;;;;;;;;;;4981888;28;20116;-52
2021/09/13 01:57:25;;;;;;;6.03;2.83;;;;;;;;;;4981305;28;20046;-50
2021/09/13 01:59:53;;;;;;;6.32;2.65;;;;;;;;;;4980073;28;20050;-52
2021/09/13 02:02:19;;;;;;;7.07;2.67;;;;;;;;;;4978030;28;20058;-50
2021/09/13 02:04:46;;;;;;;7.03;2.97;;;;;;;;;;4981440;28;20042;-52
2021/09/13 02:07:12;;;;;;;6.15;2.70;;;;;;;;;;4977976;28;20109;-52
2021/09/13 02:09:39;;;;;;;6.40;2.92;;;;;;;;;;4982044;28;20042;-55
2021/09/13 02:12:06;;;;;;;5.28;2.60;;;;;;;;;;4977147;28;20050;-49
2021/09/13 02:14:33;;;;;;;5.78;2.85;;;;;;;;;;4981782;28;20047;-52
2021/09/13 02:17:00;;;;;;;5.82;2.63;;;;;;;;;;4979468;28;20053;-54
2021/09/13 02:19:27;;;;;;;8.38;3.10;;;;;;;;;;4983089;28;20042;-53
2021/09/13 02:21:53;;;;;;;5.50;2.67;;;;;;;;;;4980088;28;20107;-52
2021/09/13 02:24:20;;;;;;;6.60;3.20;;;;;;;;;;4983551;28;20046;-50
2021/09/13 02:26:46;;;;;;;5.50;2.67;;;;;;;;;;4978160;28;20054;-53
2021/09/13 02:29:13;;;;;;;5.43;2.75;;;;;;;;;;4984294;28;20049;-51
2021/09/13 02:31:39;;;;;;;5.95;2.53;;;;;;;;;;4981708;28;20039;-52
2021/09/13 02:34:07;;;;;;;7.38;2.75;;;;;;;;;;4981121;28;20043;-50
2021/09/13 02:36:35;;;;;;;6.22;2.75;;;;;;;;;;4983130;28;20050;-52
2021/09/13 02:39:01;;;;;;;5.25;2.58;;;;;;;;;;4978869;28;20053;-55
2021/09/13 02:41:28;;;;;;;6.35;2.90;;;;;;;;;;4982861;28;20061;-51
2021/09/13 02:43:54;;;;;;;5.18;2.88;;;;;;;;;;4979184;28;20312;-52
2021/09/13 02:46:23;;;;;;;6.88;2.80;;;;;;;;;;4982167;28;20058;-53
2021/09/13 02:48:52;;;;;;;6.22;2.72;;;;;;;;;;4979940;28;20057;-54
2021/09/13 02:51:18;;;;;;;;;;;;;;;;;;4983227;28;20098;-52
2021/09/13 02:53:46;;;;;;;5.00;2.25;;;;;;;;;;4977961;28;19932;-52
2021/09/13 02:56:13;;;;;;;7.93;2.80;;;;;;;;;;4982056;28;20043;-53
2021/09/13 02:58:39;;;;;;;5.55;2.30;;;;;;;;;;4978767;28;20046;-49
2021/09/13 03:01:06;;;;;;;5.13;2.63;;;;;;;;;;4983099;28;20038;-52
2021/09/13 03:03:32;;;;;;;4.88;2.17;;;;;;;;;;4979901;28;20062;-49
2021/09/13 03:06:00;;;;;;;7.45;2.80;;;;;;;;;;4982410;28;20040;-50
2021/09/13 03:08:26;;;;;;;5.00;2.47;;;;;;;;;;4979985;28;20046;-53
2021/09/13 03:10:54;;;;;;;6.50;2.50;;;;;;;;;;4980446;28;20031;-50
2021/09/13 03:13:21;;;;;;;5.53;2.40;;;;;;;;;;4962395;28;20040;-53
2021/09/13 03:15:48;;;;;;;5.80;2.40;;;;;;;;;;4963757;28;20039;-50
2021/09/13 03:18:14;;;;;;;5.38;2.55;;;;;;;;;;4945928;28;20064;-53
2021/09/13 03:20:41;;;;;;;5.05;2.30;;;;;;;;;;4977994;28;20118;-55
2021/09/13 03:23:07;;;;;;;5.50;2.42;;;;;;;;;;4982431;28;20039;-50
2021/09/13 03:25:34;;;;;;;4.78;2.55;;;;;;;;;;4978859;28;20107;-50
2021/09/13 03:28:04;;;;;;;5.80;2.75;;;;;;;;;;4982253;28;20113;-52
2021/09/13 03:30:30;;;;;;;8.75;2.47;;;;;;;;;;4978430;28;20054;-49
2021/09/13 03:32:56;;;;;;;5.82;2.45;;;;;;;;;;4983865;28;20034;-54
2021/09/13 03:35:23;;;;;;;6.00;2.60;;;;;;;;;;4978969;28;20039;-51
2021/09/13 03:37:50;;;;;;;4.78;2.22;;;;;;;;;;4980561;28;20166;-49
2021/09/13 03:40:16;;;;;;;7.53;2.58;;;;;;;;;;4978429;28;20053;-51
2021/09/13 03:42:42;;;;;;;5.03;2.42;;;;;;;;;;4981635;28;20039;-50
2021/09/13 03:45:11;;;;;;;5.38;2.35;;;;;;;;;;4978088;28;20058;-52
2021/09/13 03:47:37;;;;;;;6.57;2.25;;;;;;;;;;4981945;28;20049;-52
2021/09/13 03:50:04;;;;;;;6.30;2.60;;;;;;;;;;4977503;28;20041;-50
2021/09/13 03:52:30;;;;;;;4.47;2.05;;;;;;;;;;4982975;28;20049;-52
2021/09/13 03:54:57;;;;;;;8.13;2.58;;;;;;;;;;4979994;28;20038;-52
2021/09/13 03:57:23;;;;;;;5.95;2.42;;;;;;;;;;4964569;28;20050;-52
2021/09/13 03:59:50;;;;;;;5.75;2.33;;;;;;;;;;4965081;28;20043;-50
2021/09/13 04:02:17;;;;;;;5.88;2.88;;;;;;;;;;4976292;28;20061;-52
2021/09/13 04:04:48;;;;;;;6.23;2.83;;;;;;;;;;4964849;28;20055;-52
2021/09/13 04:07:19;;;;;;;8.88;2.38;;;;;;;;;;4994330;28;20085;-53
2021/09/13 04:09:57;;;;;;;5.03;2.63;;;;;;;;;;4984923;28;20049;-53
2021/09/13 04:12:24;;;;;;;6.13;2.60;;;;;;;;;;4980514;28;20035;-53
2021/09/13 04:14:52;;;;;;;9.32;2.70;;;;;;;;;;4983142;28;20045;-53
2021/09/13 04:17:19;;;;;;;;;;;;;;;;;;4982416;28;20041;-51
2021/09/13 04:19:46;;;;;;;3.80;2.03;;;;;;;;;;4983017;28;19930;-50
2021/09/13 04:22:13;;;;;;;6.03;2.95;;;;;;;;;;4981603;28;20058;-52
2021/09/13 04:24:40;;;;;;;5.07;2.60;;;;;;;;;;4985425;28;20117;-53
2021/09/13 04:27:06;;;;;;;5.22;2.55;;;;;;;;;;4979455;28;20050;-52
2021/09/13 04:29:32;;;;;;;8.60;2.92;;;;;;;;;;4986328;28;20042;-49
2021/09/13 04:31:59;;;;;;;6.28;3.00;;;;;;;;;;4982307;28;20042;-50
2021/09/13 04:34:26;;;;;;;7.88;2.58;;;;;;;;;;4984529;28;20043;-52
2021/09/13 04:36:53;;;;;;;7.25;2.60;;;;;;;;;;4980948;28;20046;-54
2021/09/13 04:39:20;;;;;;;6.00;2.72;;;;;;;;;;4983887;28;20034;-50
2021/09/13 04:41:46;;;;;;;7.07;2.75;;;;;;;;;;4980251;28;20128;-51
2021/09/13 04:44:13;;;;;;;5.75;2.67;;;;;;;;;;5000954;28;20033;-51
2021/09/13 04:46:40;;;;;;;7.03;2.78;;;;;;;;;;4999494;28;20046;-49
2021/09/13 04:49:06;;;;;;;10.35;3.53;;;;;;;;;;4981013;28;20129;-51
2021/09/13 04:51:33;;;;;;;10.88;3.22;;;;;;;;;;4983934;28;20050;-50
2021/09/13 04:54:01;;;;;;;6.50;3.10;;;;;;;;;;4979542;28;20038;-54
2021/09/13 04:56:28;;;;;;;7.88;2.58;;;;;;;;;;4998937;28;20046;-51
2021/09/13 04:58:55;;;;;;;9.70;2.85;;;;;;;;;;4996754;28;20050;-52
2021/09/13 05:01:22;;;;;;;7.05;2.90;;;;;;;;;;4985758;28;20035;-52
2021/09/13 05:03:49;;;;;;;7.50;3.25;;;;;;;;;;4997155;28;20066;-51
2021/09/13 05:06:16;;;;;;;8.98;2.78;;;;;;;;;;5007137;28;20045;-52
2021/09/13 05:08:43;;;;;;;6.55;2.70;;;;;;;;;;5020525;28;20033;-50
2021/09/13 05:11:11;;;;;;;8.13;3.40;;;;;;;;;;5005882;28;20088;-53
2021/09/13 05:13:37;;;;;;;7.90;3.17;;;;;;;;;;5002665;28;20119;-53
2021/09/13 05:16:04;;;;;;;10.07;2.70;;;;;;;;;;5006594;28;20123;-53
2021/09/13 05:18:31;;;;;;;8.30;3.00;;;;;;;;;;5018050;28;20049;-54
2021/09/13 05:20:57;;;;;;;6.60;2.63;;;;;;;;;;5002367;28;20160;-52
2021/09/13 05:23:25;;;;;;;8.82;2.83;;;;;;;;;;4999175;28;20130;-53
2021/09/13 05:25:52;;;;;;;6.30;2.85;;;;;;;;;;5006333;28;20037;-52
2021/09/13 05:28:19;;;;;;;4.70;2.70;;;;;;;;;;5018269;28;20042;-53
2021/09/13 05:30:46;;;;;;;6.37;2.73;;;;;;;;;;5018065;28;20060;-50
2021/09/13 05:33:12;;;;;;;8.82;3.20;;;;;;;;;;5003289;28;20042;-53
2021/09/13 05:35:39;;;;;;;7.95;2.90;;;;;;;;;;5002612;28;20064;-50
2021/09/13 05:38:05;;;;;;;13.43;3.08;;;;;;;;;;5005660;28;20042;-52
2021/09/13 05:40:32;;;;;;;9.07;3.72;;;;;;;;;;5000545;28;20045;-53
2021/09/13 05:43:01;;;;;;;6.72;3.05;;;;;;;;;;5006411;28;20045;-52
2021/09/13 05:45:30;;;;;;;7.68;3.42;;;;;;;;;;5003324;28;20057;-51
2021/09/13 05:47:56;;;;;;;11.98;3.97;;;;;;;;;;5004295;28;20049;-54
2021/09/13 05:50:23;;;;;;;11.00;3.90;;;;;;;;;;4999200;28;20038;-54
2021/09/13 05:52:49;;;;;;;11.88;3.03;;;;;;;;;;5001468;28;20112;-50
2021/09/13 05:55:16;;;;;;;11.15;3.80;;;;;;;;;;5001052;28;20038;-53
2021/09/13 05:57:43;;;;;;;6.07;2.97;;;;;;;;;;5007409;28;20041;-51
2021/09/13 06:00:10;;;;;;;9.23;3.28;;;;;;;;;;4999868;28;20422;-51
2021/09/13 06:02:37;;;;;;;6.65;3.60;;;;;;;;;;5007013;28;20111;-48
2021/09/13 06:05:04;;;;;;;6.28;3.05;;;;;;;;;;4999725;28;20083;-52
2021/09/13 06:07:31;;;;;;;19.52;5.50;;;;;;;;;;5021484;28;20045;-55
2021/09/13 06:09:57;;;;;;;15.25;6.80;;;;;;;;;;5006758;28;20049;-51
2021/09/13 06:12:23;;;;;;;12.52;5.72;;;;;;;;;;5002325;28;20045;-54
2021/09/13 06:14:51;;;;;;;12.20;4.78;;;;;;;;;;5007483;28;20099;-52
2021/09/13 06:17:18;;;;;;;10.30;4.25;;;;;;;;;;5004040;28;20132;-51
2021/09/13 06:19:46;;;;;;;12.52;4.32;;;;;;;;;;5005964;28;20041;-51
2021/09/13 06:22:13;;;;;;;8.75;3.67;;;;;;;;;;5019956;28;20038;-52
2021/09/13 06:24:40;;;;;;;7.45;4.03;;;;;;;;;;5005221;28;20042;-53
2021/09/13 06:27:06;;;;;;;10.82;4.00;;;;;;;;;;5008920;28;20049;-53
2021/09/13 06:29:33;;;;;;;7.68;3.58;;;;;;;;;;5022358;28;20030;-52
2021/09/13 06:31:59;;;;;;;7.45;3.83;;;;;;;;;;5011957;28;20049;-50
2021/09/13 06:34:28;;;;;;;9.43;3.90;;;;;;;;;;5006667;28;20053;-53
2021/09/13 06:36:56;;;;;;;7.97;3.92;;;;;;;;;;5001791;28;20048;-52
2021/09/13 06:39:23;;;;;;;7.40;3.90;;;;;;;;;;5006918;28;20041;-53
2021/09/13 06:41:51;;;;;;;13.07;4.53;;;;;;;;;;5002064;28;20294;-52
2021/09/13 06:44:22;;;;;;;9.20;4.38;;;;;;;;;;5004034;28;20053;-51
2021/09/13 06:46:50;;;;;;;12.32;4.72;;;;;;;;;;5001778;28;20121;-52
2021/09/13 06:49:18;;;;;;;9.35;4.10;;;;;;;;;;5004246;28;20042;-54
2021/09/13 06:51:44;;;;;;;8.77;4.10;;;;;;;;;;5021774;28;20303;-53
2021/09/13 06:54:13;;;;;;;8.45;3.50;;;;;;;;;;5004864;28;20128;-52
2021/09/13 06:56:40;;;;;;;11.70;4.22;;;;;;;;;;5023480;28;20054;-53
2021/09/13 06:59:06;;;;;;;9.77;4.15;;;;;;;;;;5002700;28;20122;-53
2021/09/13 07:01:32;;;;;;;9.40;3.60;;;;;;;;;;5004142;28;20629;-55
2021/09/13 07:03:59;;;;;;;11.30;4.20;;;;;;;;;;5001793;28;20041;-54
2021/09/13 07:06:27;;;;;;;9.45;3.13;;;;;;;;;;5022377;28;20034;-53
2021/09/13 07:08:53;;;;;;;17.17;3.70;;;;;;;;;;5000313;28;20038;-54
2021/09/13 07:11:31;;;;;;;9.02;3.42;;;;;;;;;;4989189;28;20070;-53
2021/09/13 07:13:57;;;;;;;14.35;3.25;;;;;;;;;;4974039;28;20062;-55
2021/09/13 07:16:24;;;;;;;12.18;4.18;;;;;;;;;;5023184;28;20041;-51
2021/09/13 07:18:52;;;;;;;14.20;5.22;;;;;;;;;;5000670;28;20102;-50
2021/09/13 07:21:19;;;;;;;13.27;4.43;;;;;;;;;;5019419;28;20094;-51
2021/09/13 07:23:45;;;;;;;11.88;4.32;;;;;;;;;;5000145;28;20042;-51
2021/09/13 07:26:13;;;;;;;10.48;4.38;;;;;;;;;;5021045;28;20041;-55
2021/09/13 07:28:41;;;;;;;7.85;3.90;;;;;;;;;;5000358;28;20307;-55
2021/09/13 07:31:07;;;;;;;20.37;4.53;;;;;;;;;;5021565;28;20045;-54
2021/09/13 07:33:34;;;;;;;18.30;4.30;;;;;;;;;;5022543;28;20294;-51
2021/09/13 07:36:03;;;;;;;16.73;3.97;;;;;;;;;;5006500;28;20041;-50
2021/09/13 07:38:29;;;;;;;13.25;4.95;;;;;;;;;;5006964;28;20042;-55
2021/09/13 07:40:55;;;;;;;14.43;4.57;;;;;;;;;;5004176;28;20101;-54
2021/09/13 07:43:22;;;;;;;11.05;4.75;;;;;;;;;;5006656;28;20055;-52
2021/09/13 07:45:50;;;;;;;12.30;4.40;;;;;;;;;;5004749;28;20034;-51
2021/09/13 07:48:18;;;;;;;12.60;4.38;;;;;;;;;;5009121;28;20037;-55
2021/09/13 07:50:45;;;;;;;10.25;4.78;;;;;;;;;;5005410;28;20038;-54
2021/09/13 07:53:11;;;;;;;12.55;3.97;;;;;;;;;;5009908;28;20038;-54
2021/09/13 07:55:38;;;;;;;14.95;4.75;;;;;;;;;;5004187;28;20054;-50
2021/09/13 07:58:05;;;;;;;11.15;4.60;;;;;;;;;;5007798;28;20046;-52
2021/09/13 08:00:31;;;;;;;15.52;4.82;;;;;;;;;;5010121;28;20045;-51
2021/09/13 08:02:59;;;;;;;14.30;5.43;;;;;;;;;;5023049;28;20034;-50
2021/09/13 08:05:26;;;;;;;20.45;4.95;;;;;;;;;;5020316;28;20057;-50
2021/09/13 08:07:53;;;;;;;12.88;5.15;;;;;;;;;;5025923;28;20049;-49
2021/09/13 08:10:19;;;;;;;15.30;5.00;;;;;;;;;;4999723;28;20049;-50
2021/09/13 08:12:45;;;;;;;12.52;5.40;;;;;;;;;;5005180;28;20035;-53
2021/09/13 08:15:12;;;;;;;13.32;5.43;;;;;;;;;;4986156;28;20046;-52
2021/09/13 08:17:38;;;;;;;14.18;5.13;;;;;;;;;;5023395;28;20042;-51
2021/09/13 08:20:07;;;;;;;13.75;4.82;;;;;;;;;;5025285;28;20049;-53
2021/09/13 08:22:35;;;;;;;13.75;4.82;;;;;;;;;;5002698;28;20050;-53
2021/09/13 08:25:06;;;;;;;10.93;5.00;;;;;;;;;;5007043;28;20026;-53
2021/09/13 08:27:32;;;;;;;16.52;4.80;;;;;;;;;;5003423;28;20038;-53
2021/09/13 08:29:59;;;;;;;10.32;4.43;;;;;;;;;;5007208;28;20045;-53
2021/09/13 08:32:25;;;;;;;10.63;4.57;;;;;;;;;;5003475;28;20041;-52
2021/09/13 08:34:53;;;;;;;16.70;4.32;;;;;;;;;;5006586;28;20053;-52
2021/09/13 08:37:21;;;;;;;10.55;3.83;;;;;;;;;;5019797;28;20045;-54
2021/09/13 08:39:48;;;;;;;7.68;3.10;;;;;;;;;;5006775;28;20052;-54
2021/09/13 08:42:15;;;;;;;7.28;3.30;;;;;;;;;;4984951;28;20065;-53
2021/09/13 08:44:45;;;;;;;6.55;2.60;;;;;;;;;;5007019;28;20052;-51
2021/09/13 08:47:17;;;;;;;13.85;3.40;;;;;;;;;;5003030;28;20047;-54
2021/09/13 08:49:43;;;;;;;8.15;3.28;;;;;;;;;;5007943;28;20049;-53
2021/09/13 08:52:10;;;;;;;9.27;3.03;;;;;;;;;;5003751;28;20038;-53
2021/09/13 08:54:40;;;;;;;6.85;3.30;;;;;;;;;;5006161;28;20045;-51
2021/09/13 08:57:07;;;;;;;10.57;3.58;;;;;;;;;;5002678;28;20144;-53
2021/09/13 08:59:34;;;;;;;10.10;2.97;;;;;;;;;;5005660;28;20045;-54
2021/09/13 09:02:01;;;;;;;8.00;3.33;;;;;;;;;;5003863;28;20050;-51
2021/09/13 09:04:29;;;;;;;8.55;3.28;;;;;;;;;;5017792;28;20041;-53
2021/09/13 09:07:07;;;;;;;9.05;3.88;;;;;;;;;;5020996;28;20120;-52
2021/09/13 09:09:33;;;;;;;12.30;3.08;;;;;;;;;;5006529;28;20062;-53
2021/09/13 09:12:05;;;;;;;6.25;2.72;;;;;;;;;;5004662;28;20046;-54
2021/09/13 14:36:53;;;;;;;1.80;0.90;;;;;;;;;;5475443;22;20037;-56
2021/09/13 14:39:19;;;;;;;2.08;0.88;;;;;;;;;;4987521;28;20069;-57
2021/09/13 14:41:49;;;;;;;1.50;0.70;;;;;;;;;;5011083;28;20038;-57
2021/09/13 14:44:16;;;;;;;1.25;0.65;;;;;;;;;;5002641;28;20049;-59
2021/09/13 14:46:44;;;;;;;1.33;0.73;;;;;;;;;;5005657;28;20152;-58
2021/09/13 14:49:11;;;;;;;2.03;0.80;;;;;;;;;;5002842;28;20056;-60
2021/09/13 14:51:37;;;;;;;2.90;0.90;;;;;;;;;;5006616;28;20105;-59
2021/09/13 14:54:05;;;;;;;2.72;1.02;;;;;;;;;;5002250;28;20040;-59
2021/09/13 14:56:32;;;;;;;3.60;0.90;;;;;;;;;;5005309;28;20037;-60
2021/09/13 14:58:59;;;;;;;2.78;1.10;;;;;;;;;;5003422;28;20041;-59
2021/09/13 15:01:25;;;;;;;1.98;0.70;;;;;;;;;;5023565;28;20125;-59
2021/09/13 15:03:53;;;;;;;2.45;0.70;;;;;;;;;;5006394;28;20046;-60
2021/09/13 15:06:20;;;;;;;1.52;0.80;;;;;;;;;;5012174;28;20046;-60
2021/09/13 15:08:47;;;;;;;1.83;0.85;;;;;;;;;;4985415;28;20050;-60
2021/09/13 15:11:15;;;;;;;1.33;0.70;;;;;;;;;;5007187;28;20050;-59
2021/09/13 15:13:41;;;;;;;2.25;0.80;;;;;;;;;;4986070;28;20128;-59
2021/09/13 15:16:08;;;;;;;3.30;1.08;;;;;;;;;;4996937;28;20041;-60
2021/09/13 15:18:34;;;;;;;2.50;0.68;;;;;;;;;;5022457;28;20026;-60
2021/09/13 15:21:01;;;;;;;3.72;0.60;;;;;;;;;;5002478;28;20128;-60
2021/09/13 15:23:27;;;;;;;3.50;0.93;;;;;;;;;;5023264;28;20053;-59
2021/09/13 15:25:55;;;;;;;1.05;0.75;;;;;;;;;;5000321;28;20037;-59
2021/09/13 15:28:23;;;;;;;4.93;0.80;;;;;;;;;;5005576;28;20153;-59
2021/09/13 15:30:49;;;;;;;4.55;0.90;;;;;;;;;;5001793;28;20040;-59
2021/09/13 15:33:15;;;;;;;1.48;0.75;;;;;;;;;;5023044;28;20046;-59
2021/09/13 15:35:42;;;;;;;2.25;0.68;;;;;;;;;;5020551;28;20038;-60
2021/09/13 15:38:12;;;;;;;3.92;0.90;;;;;;;;;;5005755;28;20038;-61
2021/09/13 15:40:38;;;;;;;2.95;0.88;;;;;;;;;;5002731;28;20038;-59
2021/09/13 15:43:05;;;;;;;1.48;0.70;;;;;;;;;;5004865;28;20104;-59
2021/09/13 15:45:34;;;;;;;2.50;0.82;;;;;;;;;;5001426;28;20181;-59
2021/09/13 15:48:00;;;;;;;9.48;1.02;;;;;;;;;;5017922;28;20046;-59
2021/09/13 15:50:28;;;;;;;4.07;0.90;;;;;;;;;;5004254;28;20096;-59
2021/09/13 15:52:55;;;;;;;3.97;0.90;;;;;;;;;;5004646;28;20077;-59
2021/09/13 15:55:22;;;;;;;2.55;0.90;;;;;;;;;;5007776;28;20046;-59
2021/09/13 15:57:48;;;;;;;2.00;0.80;;;;;;;;;;5022660;28;20026;-60
2021/09/13 16:00:15;;;;;;;2.60;0.95;;;;;;;;;;4998020;28;20045;-58
2021/09/13 16:02:43;;;;;;;4.70;1.00;;;;;;;;;;5002592;28;20053;-59
2021/09/13 16:05:11;;;;;;;4.35;1.00;;;;;;;;;;5025600;28;20093;-59
2021/09/13 16:07:37;;;;;;;4.75;1.05;;;;;;;;;;5003945;28;20030;-59
2021/09/13 16:10:04;;;;;;;8.40;1.00;;;;;;;;;;5006973;28;20120;-59
2021/09/13 16:12:34;;;;;;;2.53;0.90;;;;;;;;;;4988599;28;20042;-59
2021/09/13 16:15:01;;;;;;;2.50;0.63;;;;;;;;;;5002889;28;20042;-60
2021/09/13 16:17:31;;;;;;;3.67;1.08;;;;;;;;;;4989693;28;20047;-59
2021/09/13 16:20:01;;;;;;;3.20;1.00;;;;;;;;;;5006970;28;20113;-59
2021/09/13 16:22:28;;;;;;;2.45;0.98;;;;;;;;;;5004286;28;20041;-59
2021/09/13 16:24:57;;;;;;;2.90;1.10;;;;;;;;;;5008073;28;20041;-58
2021/09/13 16:27:24;;;;;;;3.08;0.70;;;;;;;;;;5004342;28;20045;-58
2021/09/13 16:29:50;;;;;;;4.05;1.00;;;;;;;;;;5008059;28;20050;-59
2021/09/13 16:32:17;;;;;;;4.00;1.00;;;;;;;;;;5023196;28;20104;-55
2021/09/13 16:34:44;;;;;;;2.35;0.85;;;;;;;;;;5021511;28;20038;-57
2021/09/13 16:37:11;;;;;;;3.60;1.10;;;;;;;;;;5001939;28;20038;-59
2021/09/13 16:39:39;;;;;;;2.17;0.80;;;;;;;;;;4999789;28;20046;-58
2021/09/13 16:42:09;;;;;;;4.20;1.48;;;;;;;;;;5003850;28;20049;-59
2021/09/13 16:44:43;;;;;;;1.98;0.82;;;;;;;;;;4999281;28;20038;-59
2021/09/13 16:47:09;;;;;;;2.25;0.95;;;;;;;;;;5003346;28;20136;-59
2021/09/13 16:49:36;;;;;;;2.28;1.00;;;;;;;;;;5014184;28;20042;-59
2021/09/13 16:52:03;;;;;;;3.95;1.00;;;;;;;;;;5005659;28;20038;-58
2021/09/13 16:54:31;;;;;;;3.75;0.90;;;;;;;;;;5001284;28;20042;-58
2021/09/13 16:56:58;;;;;;;1.17;0.80;;;;;;;;;;4984496;28;20034;-59
2021/09/13 16:59:24;;;;;;;2.70;0.95;;;;;;;;;;4989994;28;20323;-58
2021/09/13 17:01:51;;;;;;;3.83;1.20;;;;;;;;;;5004855;28;20042;-59
2021/09/13 17:04:19;;;;;;;1.77;0.80;;;;;;;;;;5001171;28;20030;-59
2021/09/13 17:06:50;;;;;;;2.78;0.90;;;;;;;;;;5003873;28;20053;-58
2021/09/13 17:09:16;;;;;;;2.92;1.00;;;;;;;;;;4999476;28;20058;-59
2021/09/13 17:11:45;;;;;;;111.72;9.90;;;;;;;;;;4991135;28;20042;-59
2021/09/13 17:14:12;;;;;;;39.30;3.28;;;;;;;;;;4981126;28;20039;-59
2021/09/13 17:16:40;;;;;;;31.35;3.10;;;;;;;;;;5005810;28;20037;-60
2021/09/13 17:19:07;;;;;;;54.80;5.93;;;;;;;;;;5005053;28;20301;-58
2021/09/13 17:21:34;;;;;;;61.20;6.03;;;;;;;;;;4998534;28;20067;-59
2021/09/13 17:24:03;;;;;;;62.40;6.10;;;;;;;;;;5004173;28;20034;-59
2021/09/13 17:26:32;;;;;;;280.48;20.00;;;;;;;;;;4999079;28;20050;-58
2021/09/13 17:29:00;;;;;;;41.40;4.95;;;;;;;;;;5005015;28;20123;-59
2021/09/13 17:31:27;;;;;;;7.78;1.75;;;;;;;;;;4997835;28;20124;-60
2021/09/13 17:33:54;;;;;;;8.18;1.20;;;;;;;;;;5003039;28;20057;-59
2021/09/13 17:36:22;;;;;;;5.40;1.00;;;;;;;;;;5000296;28;20042;-58
2021/09/13 17:38:49;;;;;;;4.68;1.30;;;;;;;;;;4980683;28;20058;-58
2021/09/13 17:41:16;;;;;;;2.20;0.90;;;;;;;;;;4974594;28;20094;-56
2021/09/13 17:43:45;;;;;;;2.75;1.00;;;;;;;;;;4978270;28;20038;-57
2021/09/13 17:46:16;;;;;;;3.20;1.00;;;;;;;;;;4974515;28;20125;-59
2021/09/13 17:48:43;;;;;;;2.38;1.08;;;;;;;;;;4994437;28;20031;-59
2021/09/13 17:51:10;;;;;;;4.28;1.20;;;;;;;;;;4974376;28;20051;-58
2021/09/13 17:53:36;;;;;;;4.25;1.13;;;;;;;;;;4981055;28;20066;-59
2021/09/13 17:56:03;;;;;;;7.60;2.85;;;;;;;;;;4976610;28;20069;-56
2021/09/13 17:58:34;;;;;;;6.28;2.38;;;;;;;;;;4977488;28;20105;-59
2021/09/13 18:01:00;;;;;;;6.00;1.40;;;;;;;;;;4974725;28;20039;-58
2021/09/13 18:03:32;;;;;;;4.15;1.08;;;;;;;;;;4980329;28;20102;-59
2021/09/13 18:05:58;;;;;;;3.67;1.10;;;;;;;;;;4976400;28;20035;-59
2021/09/13 18:08:26;;;;;;;3.17;1.20;;;;;;;;;;4975910;28;20043;-59
2021/09/13 18:10:52;;;;;;;6.03;0.90;;;;;;;;;;4977694;28;20043;-59
2021/09/13 18:13:22;;;;;;;2.17;1.00;;;;;;;;;;4971414;28;20064;-58
2021/09/13 18:15:49;;;;;;;4.47;1.02;;;;;;;;;;4980695;28;20050;-58
2021/09/13 18:18:16;;;;;;;4.85;1.20;;;;;;;;;;4973843;28;20079;-57
2021/09/13 18:20:44;;;;;;;5.80;1.20;;;;;;;;;;4979028;28;20049;-59
2021/09/13 18:23:11;;;;;;;5.75;1.30;;;;;;;;;;4975735;28;20058;-57
2021/09/13 18:25:41;;;;;;;2.33;1.00;;;;;;;;;;4979361;28;20035;-59
2021/09/13 18:28:07;;;;;;;4.18;1.00;;;;;;;;;;4974074;28;20121;-59
2021/09/13 18:30:34;;;;;;;4.65;1.10;;;;;;;;;;4978205;28;20129;-58
2021/09/13 18:33:00;;;;;;;5.88;1.25;;;;;;;;;;4970835;28;20043;-59
2021/09/13 18:35:27;;;;;;;5.40;1.13;;;;;;;;;;4979258;28;20047;-58
2021/09/13 18:37:56;;;;;;;5.15;1.05;;;;;;;;;;4990532;28;20038;-60
2021/09/13 18:40:22;;;;;;;4.65;1.20;;;;;;;;;;5001333;28;20045;-59
2021/09/13 18:42:50;;;;;;;4.53;1.13;;;;;;;;;;4999313;28;20058;-56
2021/09/13 18:45:17;;;;;;;4.00;1.20;;;;;;;;;;4999307;28;20054;-59
2021/09/13 18:47:43;;;;;;;2.67;0.93;;;;;;;;;;4999787;28;20061;-59
2021/09/13 18:50:10;;;;;;;1.98;0.93;;;;;;;;;;5001789;28;20062;-58
2021/09/13 18:52:36;;;;;;;3.05;1.13;;;;;;;;;;5004759;28;20086;-57
2021/09/13 18:55:07;;;;;;;4.28;1.20;;;;;;;;;;5000754;28;20044;-59
2021/09/13 18:57:34;;;;;;;3.15;1.30;;;;;;;;;;5004030;28;20077;-60
2021/09/13 19:00:02;;;;;;;2.78;1.00;;;;;;;;;;5000845;28;20123;-58
2021/09/13 19:02:29;;;;;;;2.90;1.13;;;;;;;;;;5003943;28;20049;-57
2021/09/13 19:04:55;;;;;;;1.65;1.00;;;;;;;;;;4999742;28;20050;-58
2021/09/13 19:07:22;;;;;;;4.38;1.40;;;;;;;;;;5002820;28;20058;-57
2021/09/13 19:09:48;;;;;;;5.38;1.40;;;;;;;;;;5001715;28;20057;-58
2021/09/13 19:12:16;;;;;;;3.30;1.33;;;;;;;;;;5003510;28;20062;-58
2021/09/13 19:14:43;;;;;;;6.70;1.10;;;;;;;;;;4999413;28;20053;-57
2021/09/13 19:17:09;;;;;;;4.35;1.27;;;;;;;;;;5003302;28;20057;-57
2021/09/13 19:19:36;;;;;;;6.18;1.40;;;;;;;;;;4998870;28;20049;-57
2021/09/13 19:22:03;;;;;;;6.70;1.30;;;;;;;;;;5004192;28;20038;-59
2021/09/13 19:24:29;;;;;;;4.57;1.20;;;;;;;;;;4998299;28;20058;-59
2021/09/13 19:26:56;;;;;;;4.95;1.35;;;;;;;;;;5006507;28;20058;-55
2021/09/13 19:29:24;;;;;;;5.97;1.25;;;;;;;;;;5002855;28;20084;-58
2021/09/13 19:31:53;;;;;;;9.18;1.40;;;;;;;;;;5005015;28;20046;-54
2021/09/13 19:34:20;;;;;;;5.45;1.52;;;;;;;;;;4998409;28;20228;-58
2021/09/13 19:36:47;;;;;;;5.95;1.90;;;;;;;;;;4983307;28;20064;-56
2021/09/13 19:39:16;;;;;;;6.65;1.55;;;;;;;;;;4991297;28;20103;-58
2021/09/13 19:41:43;;;;;;;7.10;1.38;;;;;;;;;;5010748;28;20147;-59
2021/09/13 19:44:10;;;;;;;5.63;2.08;;;;;;;;;;5005526;28;20049;-57
2021/09/13 19:46:39;;;;;;;5.80;1.52;;;;;;;;;;4992922;28;20038;-57
2021/09/13 19:49:05;;;;;;;3.88;1.42;;;;;;;;;;5005121;28;20042;-56
2021/09/13 19:51:33;;;;;;;7.88;1.90;;;;;;;;;;5003223;28;20057;-58
2021/09/13 19:53:59;;;;;;;9.90;1.50;;;;;;;;;;5005830;28;20078;-57
2021/09/13 19:56:26;;;;;;;5.38;1.75;;;;;;;;;;5002789;28;20042;-58
2021/09/13 19:58:52;;;;;;;4.32;1.40;;;;;;;;;;4997241;28;20030;-57
2021/09/13 20:01:19;;;;;;;6.88;1.63;;;;;;;;;;4981205;28;20038;-58
2021/09/13 20:03:47;;;;;;;6.32;1.48;;;;;;;;;;5005426;28;20038;-58